Time;durP1;ratioP1;P1;durP2;ratioP2;P2;SDS_P1;SDS_P2;PMS_P1;PMS_P2;Temp;Humidity;BMP_temperature;BMP_pressure;BME280_temperature;BME280_humidity;BME280_pressure;Samples;Min_cycle;Max_cycle;Signal;HPM_P1;HPM_P2
2021/05/31 00:02:17;;;;;;;3.88;3.13;;;12.00;38.70;;;;;;5104950;28;20252;-77
2021/05/31 00:04:44;;;;;;;5.22;3.35;;;11.90;38.90;;;;;;5100166;28;20613;-77
2021/05/31 00:07:13;;;;;;;4.32;3.72;;;11.80;39.30;;;;;;5100458;28;20197;-76
2021/05/31 00:09:41;;;;;;;3.72;3.15;;;11.80;39.40;;;;;;5102357;28;20197;-77
2021/05/31 00:12:11;;;;;;;4.10;3.72;;;11.70;39.60;;;;;;5099489;28;20584;-78
2021/05/31 00:14:38;;;;;;;6.57;3.50;;;11.70;39.80;;;;;;5099892;28;20220;-78
2021/05/31 00:17:05;;;;;;;4.28;3.67;;;11.60;41.40;;;;;;5100061;28;20216;-77
2021/05/31 00:19:31;;;;;;;6.45;3.30;;;11.50;40.90;;;;;;5099859;28;20201;-78
2021/05/31 00:21:59;;;;;;;3.92;3.08;;;11.40;40.80;;;;;;5097248;28;20286;-76
2021/05/31 00:24:26;;;;;;;4.15;3.58;;;11.30;41.10;;;;;;5097614;28;20213;-78
2021/05/31 00:26:53;;;;;;;5.55;3.50;;;11.20;42.70;;;;;;5098585;28;20197;-76
2021/05/31 00:29:23;;;;;;;4.93;3.80;;;11.20;43.00;;;;;;5099646;28;20201;-76
2021/05/31 00:31:50;;;;;;;5.47;3.25;;;11.20;43.30;;;;;;5098422;28;20221;-77
2021/05/31 00:34:16;;;;;;;5.18;3.90;;;11.00;44.00;;;;;;5098998;28;20236;-77
2021/05/31 00:36:43;;;;;;;6.05;3.92;;;11.00;44.90;;;;;;5101046;28;20225;-76
2021/05/31 00:39:10;;;;;;;3.60;3.30;;;11.00;45.60;;;;;;5101496;28;20630;-77
2021/05/31 00:41:37;;;;;;;7.35;3.90;;;10.90;46.30;;;;;;5098293;28;20229;-77
2021/05/31 00:44:03;;;;;;;3.80;3.35;;;10.90;46.30;;;;;;5098018;28;20209;-77
2021/05/31 00:46:31;;;;;;;4.45;4.05;;;10.80;46.70;;;;;;5098450;28;20233;-78
2021/05/31 00:48:57;;;;;;;4.40;4.00;;;10.70;47.70;;;;;;5098216;28;20268;-76
2021/05/31 00:51:26;;;;;;;4.40;3.72;;;10.70;48.10;;;;;;5101479;28;20220;-77
2021/05/31 00:53:52;;;;;;;3.97;3.50;;;10.60;48.40;;;;;;5080817;22;20256;-78
2021/05/31 00:56:19;;;;;;;4.88;4.40;;;10.60;49.00;;;;;;5055039;28;20735;-78
2021/05/31 00:58:45;;;;;;;4.85;4.35;;;10.50;49.70;;;;;;5055092;28;20681;-78
2021/05/31 01:01:14;;;;;;;7.38;4.43;;;10.50;49.70;;;;;;5055575;28;20202;-79
2021/05/31 01:03:42;;;;;;;5.28;4.00;;;10.50;49.70;;;;;;5055897;28;20238;-78
2021/05/31 01:06:11;;;;;;;5.03;4.40;;;10.50;49.70;;;;;;5055137;28;20232;-78
2021/05/31 01:08:45;;;;;;;7.05;4.30;;;10.50;49.70;;;;;;5054872;28;20276;-78
2021/05/31 01:11:14;;;;;;;7.97;4.82;;;10.40;49.60;;;;;;5054610;28;20210;-78
2021/05/31 01:13:45;;;;;;;5.28;4.38;;;10.40;50.70;;;;;;5054348;28;20264;-78
2021/05/31 01:16:15;;;;;;;4.15;3.70;;;10.30;50.70;;;;;;5056019;28;20276;-78
2021/05/31 01:18:45;;;;;;;3.95;3.55;;;10.30;51.00;;;;;;5055476;28;20275;-76
2021/05/31 01:21:20;;;;;;;4.68;3.88;;;10.20;51.30;;;;;;5056907;28;20291;-79
2021/05/31 01:23:54;;;;;;;4.57;3.90;;;10.10;52.30;;;;;;5054869;28;20315;-79
2021/05/31 01:26:22;;;;;;;5.50;3.80;;;10.10;52.70;;;;;;5055542;28;20215;-79
2021/05/31 01:29:02;;;;;;;4.78;4.10;;;10.00;53.40;;;;;;5055526;28;20226;-79
2021/05/31 01:31:42;;;;;;;6.60;4.53;;;10.00;53.80;;;;;;5062427;28;20217;-78
2021/05/31 01:34:11;;;;;;;4.38;3.90;;;9.90;54.30;;;;;;5063341;28;20214;-79
2021/05/31 01:36:43;;;;;;;6.15;4.10;;;9.90;54.40;;;;;;5056788;28;20279;-78
2021/05/31 01:39:13;;;;;;;4.15;3.75;;;9.90;54.70;;;;;;5054391;28;20207;-79
2021/05/31 01:41:40;;;;;;;5.53;4.05;;;9.80;54.80;;;;;;5054297;28;20520;-79
2021/05/31 01:44:08;;;;;;;6.03;4.43;;;9.80;54.80;;;;;;5054742;28;20207;-79
2021/05/31 01:46:35;;;;;;;5.05;4.30;;;9.80;55.30;;;;;;5054287;28;20740;-79
2021/05/31 01:49:02;;;;;;;6.85;3.40;;;9.70;55.60;;;;;;5054803;28;20214;-80
2021/05/31 01:51:28;;;;;;;4.40;3.85;;;9.70;55.60;;;;;;5054910;28;20241;-79
2021/05/31 01:53:56;;;;;;;6.68;4.15;;;9.70;55.80;;;;;;5056366;28;20313;-78
2021/05/31 01:56:23;;;;;;;4.35;3.92;;;9.70;55.90;;;;;;5064769;28;20222;-79
2021/05/31 01:58:51;;;;;;;5.60;4.60;;;9.60;55.80;;;;;;5068839;28;20206;-82
2021/05/31 02:01:19;;;;;;;4.60;4.20;;;9.60;56.00;;;;;;5076695;28;20233;-80
2021/05/31 02:03:46;;;;;;;6.85;4.35;;;9.60;56.40;;;;;;5068008;28;20346;-79
2021/05/31 02:06:12;;;;;;;4.65;4.18;;;9.50;57.20;;;;;;5054363;28;20213;-78
2021/05/31 02:08:39;;;;;;;4.30;3.90;;;9.40;57.50;;;;;;5053959;28;20317;-79
2021/05/31 02:11:15;;;;;;;4.53;4.10;;;9.40;57.40;;;;;;5054315;28;20208;-77
2021/05/31 02:13:44;;;;;;;4.80;3.90;;;9.40;57.60;;;;;;5056712;28;20307;-79
2021/05/31 02:16:19;;;;;;;4.82;4.38;;;9.40;58.30;;;;;;5067392;28;20702;-79
2021/05/31 02:18:50;;;;;;;5.90;3.65;;;9.30;59.10;;;;;;5057849;28;20630;-79
2021/05/31 02:21:18;;;;;;;5.10;4.40;;;9.20;59.00;;;;;;5060876;28;20210;-79
2021/05/31 02:23:45;;;;;;;8.35;4.78;;;9.20;59.40;;;;;;5054146;28;20220;-78
2021/05/31 02:26:15;;;;;;;5.00;4.50;;;9.10;60.10;;;;;;5058796;28;20210;-78
2021/05/31 02:28:41;;;;;;;5.47;4.20;;;9.10;60.80;;;;;;5061150;28;20253;-80
2021/05/31 02:31:08;;;;;;;4.72;4.10;;;9.10;61.50;;;;;;5064185;28;20303;-79
2021/05/31 02:33:35;;;;;;;6.43;4.35;;;9.00;61.60;;;;;;5059466;28;20242;-80
2021/05/31 02:36:03;;;;;;;4.88;3.90;;;8.90;62.30;;;;;;5055965;28;20201;-79
2021/05/31 02:38:30;;;;;;;6.93;4.78;;;8.90;62.80;;;;;;5054527;28;20317;-79
2021/05/31 02:40:56;;;;;;;3.80;3.50;;;8.80;63.10;;;;;;5055942;28;20262;-78
2021/05/31 02:43:22;;;;;;;4.28;3.88;;;8.80;63.10;;;;;;5055806;28;20280;-78
2021/05/31 02:45:49;;;;;;;9.75;4.40;;;8.70;63.50;;;;;;5055336;28;20207;-79
2021/05/31 02:48:15;;;;;;;5.85;4.40;;;8.70;63.80;;;;;;5055087;28;20233;-79
2021/05/31 02:50:42;;;;;;;8.20;4.68;;;8.70;63.60;;;;;;5054909;28;20282;-79
2021/05/31 02:53:10;;;;;;;5.20;4.70;;;8.70;63.80;;;;;;5055052;28;20270;-78
2021/05/31 02:55:37;;;;;;;8.15;4.70;;;8.70;63.50;;;;;;5053898;28;20279;-78
2021/05/31 02:58:03;;;;;;;5.40;4.43;;;8.70;63.90;;;;;;5065195;28;20241;-80
2021/05/31 03:00:30;;;;;;;5.15;4.55;;;8.70;63.70;;;;;;5076090;28;20218;-80
2021/05/31 03:02:57;;;;;;;4.85;4.35;;;8.70;63.60;;;;;;5075363;28;20241;-79
2021/05/31 03:05:27;;;;;;;5.25;4.55;;;8.70;64.10;;;;;;5071130;28;20474;-80
2021/05/31 03:07:54;;;;;;;7.07;5.10;;;8.60;64.30;;;;;;5065316;28;20224;-81
2021/05/31 03:10:22;;;;;;;8.50;4.10;;;8.60;64.70;;;;;;5075155;28;20213;-79
2021/05/31 03:12:48;;;;;;;5.70;5.10;;;8.50;65.30;;;;;;5072622;28;20245;-80
2021/05/31 03:15:17;;;;;;;8.10;4.97;;;8.50;66.10;;;;;;5069693;28;20214;-77
2021/05/31 03:17:44;;;;;;;6.15;4.30;;;8.40;67.20;;;;;;5053719;28;20317;-78
2021/05/31 03:20:12;;;;;;;7.68;4.88;;;8.40;67.20;;;;;;5060518;28;20232;-78
2021/05/31 03:22:39;;;;;;;6.30;4.82;;;8.40;67.20;;;;;;5064392;28;20313;-78
2021/05/31 03:25:07;;;;;;;7.35;4.32;;;8.40;67.20;;;;;;5058785;28;20198;-78
2021/05/31 03:27:35;;;;;;;5.70;4.45;;;8.40;67.20;;;;;;5052990;28;20297;-79
2021/05/31 03:30:01;;;;;;;5.82;4.20;;;8.40;67.20;;;;;;5052383;28;20217;-78
2021/05/31 03:32:28;;;;;;;6.63;4.72;;;8.40;67.20;;;;;;5052578;28;20313;-78
2021/05/31 03:34:54;;;;;;;6.00;5.45;;;8.40;67.20;;;;;;5052600;28;20242;-79
2021/05/31 03:37:20;;;;;;;10.43;5.35;;;8.40;67.20;;;;;;5053355;28;20254;-78
2021/05/31 03:39:47;;;;;;;5.55;5.03;;;8.30;67.10;;;;;;5052779;28;20569;-78
2021/05/31 03:42:13;;;;;;;4.68;4.18;;;8.30;67.10;;;;;;5052854;28;20691;-78
2021/05/31 03:44:41;;;;;;;7.75;4.78;;;8.30;67.10;;;;;;5052705;28;20283;-77
2021/05/31 03:47:08;;;;;;;4.88;4.30;;;8.40;67.20;;;;;;5053727;28;20285;-79
2021/05/31 03:49:34;;;;;;;4.30;3.90;;;8.40;67.20;;;;;;5058061;28;20234;-79
2021/05/31 03:52:00;;;;;;;5.65;4.57;;;8.40;67.20;;;;;;5061557;28;20325;-79
2021/05/31 03:54:27;;;;;;;6.75;4.28;;;8.40;67.20;;;;;;5071673;28;20194;-80
2021/05/31 03:56:55;;;;;;;5.20;4.70;;;8.40;66.50;;;;;;5074959;28;20222;-80
2021/05/31 03:59:21;;;;;;;8.45;4.47;;;8.50;64.40;;;;;;5055896;28;20217;-79
2021/05/31 04:01:51;;;;;;;7.60;5.35;;;8.50;63.60;;;;;;5053047;28;20634;-79
2021/05/31 04:04:19;;;;;;;4.85;4.00;;;8.60;62.60;;;;;;5053875;28;20206;-77
2021/05/31 04:07:21;;;;;;;5.15;4.15;;;8.60;61.80;;;;;;5064615;28;20252;-78
2021/05/31 04:12:25;;;;;;;4.75;4.05;;;8.70;61.20;;;;;;5058289;28;20216;-79
2021/05/31 04:14:52;;;;;;;4.35;3.78;;;8.80;60.60;;;;;;5072556;28;20229;-82
2021/05/31 04:17:20;;;;;;;6.70;4.47;;;8.80;60.30;;;;;;5078745;28;20218;-81
2021/05/31 04:19:46;;;;;;;5.55;4.43;;;8.80;60.40;;;;;;5078301;28;20209;-81
2021/05/31 04:22:12;;;;;;;5.45;4.03;;;8.80;60.50;;;;;;5067383;28;20258;-79
2021/05/31 04:24:39;;;;;;;6.13;4.20;;;8.90;60.50;;;;;;5056001;28;20208;-79
2021/05/31 04:27:06;;;;;;;4.22;3.83;;;9.00;60.00;;;;;;5055759;28;20225;-79
2021/05/31 04:29:33;;;;;;;7.07;4.00;;;9.10;58.90;;;;;;5054905;28;20206;-77
2021/05/31 04:31:59;;;;;;;4.80;4.20;;;9.30;59.10;;;;;;5056305;28;20311;-79
2021/05/31 04:34:27;;;;;;;6.15;4.15;;;9.30;57.80;;;;;;5055847;28;20257;-79
2021/05/31 04:36:53;;;;;;;5.22;3.97;;;9.30;57.40;;;;;;5055902;28;20250;-79
2021/05/31 04:39:20;;;;;;;4.57;4.10;;;9.40;56.90;;;;;;5055249;28;20209;-78
2021/05/31 04:41:46;;;;;;;5.18;3.88;;;9.60;55.60;;;;;;5056225;28;20297;-79
2021/05/31 04:44:13;;;;;;;5.30;3.63;;;10.10;51.90;;;;;;5055601;28;20211;-78
2021/05/31 04:46:39;;;;;;;3.63;3.13;;;10.50;48.10;;;;;;5055419;28;20202;-79
2021/05/31 04:49:06;;;;;;;5.05;3.80;;;10.80;45.80;;;;;;5055836;28;20289;-78
2021/05/31 04:51:34;;;;;;;3.90;3.50;;;11.00;44.20;;;;;;5055568;28;20336;-78
2021/05/31 04:54:01;;;;;;;4.53;3.40;;;11.40;42.10;;;;;;5055322;28;20230;-78
2021/05/31 04:56:28;;;;;;;3.28;2.97;;;12.10;39.40;;;;;;5055338;28;20238;-78
2021/05/31 04:58:55;;;;;;;3.35;3.00;;;12.60;37.20;;;;;;5055391;28;20209;-77
2021/05/31 05:01:21;;;;;;;2.80;2.60;;;12.90;36.20;;;;;;5070619;28;20294;-78
2021/05/31 05:03:48;;;;;;;3.30;3.00;;;13.20;35.10;;;;;;5055385;28;20254;-79
2021/05/31 05:06:14;;;;;;;4.85;2.78;;;13.40;35.30;;;;;;5055145;28;20217;-77
2021/05/31 05:08:42;;;;;;;4.18;2.40;;;14.00;33.20;;;;;;5054889;28;20211;-79
2021/05/31 05:11:09;;;;;;;4.55;3.00;;;14.10;33.00;;;;;;5054934;28;20225;-77
2021/05/31 05:13:35;;;;;;;4.60;3.00;;;14.00;33.20;;;;;;5054540;28;20345;-78
2021/05/31 05:16:02;;;;;;;7.18;2.85;;;13.90;33.10;;;;;;5056885;28;20242;-79
2021/05/31 05:18:28;;;;;;;3.78;2.80;;;13.80;33.00;;;;;;5060752;28;20262;-78
2021/05/31 05:20:55;;;;;;;2.60;2.40;;;13.80;33.00;;;;;;5064664;28;20287;-78
2021/05/31 05:23:21;;;;;;;4.53;2.80;;;14.00;33.20;;;;;;5057878;28;20222;-78
2021/05/31 05:25:49;;;;;;;3.05;2.53;;;13.90;32.50;;;;;;5054174;28;20297;-78
2021/05/31 05:28:15;;;;;;;3.15;2.72;;;14.60;31.90;;;;;;5054642;28;20290;-77
2021/05/31 05:30:41;;;;;;;2.78;2.58;;;15.20;30.30;;;;;;5054249;28;20298;-78
2021/05/31 05:33:08;;;;;;;3.40;2.80;;;15.00;30.00;;;;;;5054346;28;20267;-78
2021/05/31 05:35:37;;;;;;;4.17;3.03;;;15.00;30.80;;;;;;5055931;28;20423;-79
2021/05/31 05:38:12;;;;;;;5.90;3.00;;;15.80;28.80;;;;;;5053765;28;21019;-78
2021/05/31 05:41:10;;;;;;;3.50;3.13;;;15.50;29.00;;;;;;5053665;28;20556;-78
2021/05/31 05:43:51;;;;;;;3.10;2.40;;;15.40;29.50;;;;;;5054848;28;20463;-79
2021/05/31 05:46:38;;;;;;;3.87;2.97;;;15.60;29.50;;;;;;5053602;28;20435;-78
2021/05/31 05:49:05;;;;;;;5.70;3.47;;;15.50;29.90;;;;;;5054989;28;20480;-77
2021/05/31 05:51:31;;;;;;;3.47;2.70;;;15.40;29.10;;;;;;5054126;28;20423;-78
2021/05/31 05:53:59;;;;;;;5.13;2.70;;;15.00;30.20;;;;;;5058734;28;20491;-78
2021/05/31 05:56:26;;;;;;;4.73;2.83;;;15.30;30.20;;;;;;5074506;28;20408;-79
2021/05/31 05:58:54;;;;;;;3.10;2.80;;;15.80;29.90;;;;;;5075478;28;20463;-79
2021/05/31 06:01:21;;;;;;;4.90;3.23;;;16.00;28.60;;;;;;5063732;28;20473;-78
2021/05/31 06:03:51;;;;;;;2.83;2.50;;;16.00;28.40;;;;;;5054082;28;20443;-77
2021/05/31 06:06:18;;;;;;;3.70;2.63;;;16.40;28.80;;;;;;5052941;28;20823;-78
2021/05/31 06:08:45;;;;;;;3.83;2.73;;;16.00;29.30;;;;;;5052814;28;20448;-77
2021/05/31 06:11:11;;;;;;;3.40;2.60;;;17.40;27.00;;;;;;5053965;28;20449;-77
2021/05/31 06:13:39;;;;;;;3.90;2.90;;;17.30;27.30;;;;;;5053363;28;20534;-77
2021/05/31 06:16:07;;;;;;;2.90;2.60;;;17.80;27.30;;;;;;5053731;28;20455;-78
2021/05/31 06:18:34;;;;;;;3.23;2.57;;;17.80;27.30;;;;;;5055198;28;20579;-77
2021/05/31 06:21:00;;;;;;;4.63;2.80;;;17.60;27.20;;;;;;5055540;28;20514;-78
2021/05/31 06:23:27;;;;;;;3.17;2.70;;;16.70;27.80;;;;;;5053404;28;20469;-78
2021/05/31 06:25:54;;;;;;;3.07;2.83;;;16.10;29.00;;;;;;5054006;28;20441;-77
2021/05/31 06:28:20;;;;;;;2.93;2.73;;;16.20;28.80;;;;;;5052133;28;20431;-78
2021/05/31 06:30:47;;;;;;;3.60;2.80;;;16.70;28.60;;;;;;5052338;28;20495;-77
2021/05/31 06:33:16;;;;;;;3.70;3.07;;;16.90;28.30;;;;;;5052193;28;20539;-78
2021/05/31 06:35:43;;;;;;;3.20;2.90;;;16.70;28.20;;;;;;5052536;28;20911;-77
2021/05/31 06:38:09;;;;;;;3.20;2.63;;;16.70;28.80;;;;;;5052587;28;20635;-79
2021/05/31 06:40:36;;;;;;;3.53;3.17;;;17.00;28.00;;;;;;5053066;28;20464;-78
2021/05/31 06:43:02;;;;;;;4.07;3.30;;;17.10;28.20;;;;;;5052799;28;20503;-78
2021/05/31 06:45:30;;;;;;;2.87;2.57;;;17.80;27.30;;;;;;5053079;28;20472;-78
2021/05/31 06:47:58;;;;;;;4.73;2.40;;;18.40;26.20;;;;;;5054063;28;20476;-79
2021/05/31 06:50:27;;;;;;;2.73;2.53;;;18.00;27.50;;;;;;5056638;28;20487;-78
2021/05/31 06:52:54;;;;;;;3.13;2.83;;;17.70;27.20;;;;;;5066169;28;20519;-78
2021/05/31 06:55:23;;;;;;;2.80;2.60;;;17.80;27.30;;;;;;5064111;28;20496;-78
2021/05/31 06:57:51;;;;;;;3.20;2.90;;;17.80;27.30;;;;;;5063776;28;20475;-77
2021/05/31 07:00:20;;;;;;;5.67;2.50;;;17.40;27.00;;;;;;5061954;28;20488;-77
2021/05/31 07:02:47;;;;;;;3.57;3.10;;;16.70;28.60;;;;;;5062737;28;20548;-78
2021/05/31 07:05:14;;;;;;;3.50;2.97;;;16.40;29.40;;;;;;5063519;28;20443;-78
2021/05/31 07:07:41;;;;;;;6.43;3.10;;;15.90;30.20;;;;;;5066549;28;20481;-77
2021/05/31 07:10:11;;;;;;;2.60;2.40;;;16.20;30.00;;;;;;5062322;28;20974;-78
2021/05/31 07:12:37;;;;;;;3.13;2.73;;;16.00;29.00;;;;;;5057531;28;20540;-79
2021/05/31 07:15:05;;;;;;;4.63;2.80;;;16.10;29.20;;;;;;5061059;28;20508;-79
2021/05/31 07:17:33;;;;;;;5.00;3.00;;;16.00;28.80;;;;;;5057490;28;20455;-78
2021/05/31 07:20:01;;;;;;;2.90;2.47;;;15.90;29.60;;;;;;5059634;28;20448;-78
2021/05/31 07:22:27;;;;;;;3.23;2.93;;;16.20;28.70;;;;;;5058475;28;20515;-78
2021/05/31 07:24:55;;;;;;;3.90;2.60;;;16.40;27.90;;;;;;5066166;28;20472;-77
2021/05/31 07:27:22;;;;;;;3.00;2.70;;;16.50;28.00;;;;;;5063181;28;20456;-77
2021/05/31 07:29:49;;;;;;;3.47;2.27;;;16.80;26.60;;;;;;5063877;28;20464;-77
2021/05/31 07:32:15;;;;;;;3.87;2.70;;;16.70;26.50;;;;;;5064589;28;20468;-78
2021/05/31 07:34:42;;;;;;;3.00;2.40;;;17.00;26.70;;;;;;5056773;28;20514;-78
2021/05/31 07:37:09;;;;;;;2.53;2.33;;;17.20;25.90;;;;;;5054673;28;20542;-78
2021/05/31 07:39:36;;;;;;;2.60;2.20;;;16.90;25.50;;;;;;5055481;28;20479;-78
2021/05/31 07:42:04;;;;;;;2.40;2.03;;;17.00;26.70;;;;;;5055843;28;20871;-79
2021/05/31 07:44:31;;;;;;;4.07;2.27;;;17.10;24.30;;;;;;5059441;28;20485;-77
2021/05/31 07:46:57;;;;;;;4.73;2.50;;;17.00;24.90;;;;;;5062770;28;20472;-79
2021/05/31 07:49:24;;;;;;;2.50;2.30;;;17.20;24.40;;;;;;5065161;28;20456;-77
2021/05/31 07:51:54;;;;;;;2.63;2.43;;;17.20;23.50;;;;;;5059937;28;20448;-77
2021/05/31 07:54:21;;;;;;;3.00;2.80;;;17.30;25.20;;;;;;5059566;28;20599;-77
2021/05/31 07:56:47;;;;;;;3.57;2.50;;;17.50;23.90;;;;;;5060341;28;20443;-78
2021/05/31 07:59:15;;;;;;;3.20;2.50;;;17.50;23.00;;;;;;5059019;28;20936;-78
2021/05/31 08:01:42;;;;;;;5.07;2.60;;;17.30;23.50;;;;;;5060859;28;20427;-79
2021/05/31 08:04:08;;;;;;;3.70;2.30;;;17.50;23.20;;;;;;5061615;28;20479;-77
2021/05/31 08:06:35;;;;;;;4.10;2.50;;;17.50;22.80;;;;;;5059248;28;20477;-77
2021/05/31 08:09:02;;;;;;;2.70;2.40;;;17.70;23.00;;;;;;5060849;28;20506;-78
2021/05/31 08:11:28;;;;;;;2.63;2.43;;;17.90;23.20;;;;;;5073765;28;20460;-78
2021/05/31 08:13:55;;;;;;;2.73;2.37;;;17.80;24.00;;;;;;5075052;28;20502;-78
2021/05/31 08:16:23;;;;;;;4.90;2.87;;;18.00;22.40;;;;;;5064981;28;20440;-78
2021/05/31 08:18:49;;;;;;;2.53;2.23;;;17.70;23.00;;;;;;5062669;28;20491;-78
2021/05/31 08:21:16;;;;;;;3.03;2.10;;;17.70;23.20;;;;;;5076988;28;20440;-78
2021/05/31 08:23:42;;;;;;;2.87;2.50;;;17.60;22.80;;;;;;5077080;28;20512;-78
2021/05/31 08:26:09;;;;;;;2.80;2.60;;;17.90;23.30;;;;;;5076810;28;20424;-78
2021/05/31 08:28:36;;;;;;;2.30;2.10;;;17.90;22.50;;;;;;5072191;28;20477;-78
2021/05/31 08:31:03;;;;;;;3.73;2.53;;;18.00;22.60;;;;;;5061903;28;20467;-77
2021/05/31 08:33:31;;;;;;;2.47;2.27;;;17.90;22.10;;;;;;5058902;28;20472;-77
2021/05/31 08:35:57;;;;;;;3.40;2.37;;;18.10;22.50;;;;;;5056327;28;20606;-77
2021/05/31 08:38:24;;;;;;;3.90;2.80;;;18.10;21.90;;;;;;5055626;28;20551;-78
2021/05/31 08:40:50;;;;;;;2.43;2.23;;;18.20;21.60;;;;;;5058075;28;20485;-77
2021/05/31 08:43:16;;;;;;;2.60;2.40;;;18.10;21.30;;;;;;5061914;28;20478;-78
2021/05/31 08:45:43;;;;;;;2.50;2.23;;;18.00;21.60;;;;;;5058135;28;20540;-77
2021/05/31 08:48:10;;;;;;;2.70;2.13;;;17.90;21.80;;;;;;5060783;28;20456;-78
2021/05/31 08:50:39;;;;;;;6.23;2.40;;;18.00;21.70;;;;;;5066536;28;20453;-78
2021/05/31 08:53:06;;;;;;;2.10;2.00;;;17.90;21.80;;;;;;5067969;28;20459;-77
2021/05/31 08:55:34;;;;;;;3.63;2.03;;;18.10;21.60;;;;;;5072158;28;20431;-76
2021/05/31 08:58:01;;;;;;;2.53;2.33;;;18.20;21.50;;;;;;5060101;28;20455;-77
2021/05/31 09:00:30;;;;;;;2.60;2.40;;;18.40;21.10;;;;;;5058993;28;20453;-78
2021/05/31 09:03:00;;;;;;;3.30;2.10;;;18.50;20.70;;;;;;5056912;28;20497;-80
2021/05/31 09:05:33;;;;;;;2.47;2.27;;;18.70;20.20;;;;;;5056179;28;20472;-78
2021/05/31 09:08:06;;;;;;;7.73;2.40;;;18.60;19.70;;;;;;5055655;28;20481;-77
2021/05/31 09:10:43;;;;;;;4.33;2.70;;;18.70;19.70;;;;;;5057149;28;20507;-76
2021/05/31 09:13:10;;;;;;;3.73;2.87;;;18.50;19.60;;;;;;5057227;28;20854;-77
2021/05/31 09:15:38;;;;;;;3.60;2.20;;;18.60;19.60;;;;;;5059176;28;20466;-77
2021/05/31 09:18:05;;;;;;;2.50;2.30;;;18.60;19.60;;;;;;5055611;28;21019;-78
2021/05/31 09:20:32;;;;;;;2.10;1.97;;;18.60;19.70;;;;;;5057091;28;20457;-78
2021/05/31 09:22:59;;;;;;;2.50;2.00;;;18.60;18.90;;;;;;5058090;28;20828;-77
2021/05/31 09:25:30;;;;;;;5.10;2.60;;;18.60;19.00;;;;;;5055456;28;20559;-77
2021/05/31 09:27:58;;;;;;;2.07;1.97;;;18.70;19.20;;;;;;5055704;28;20445;-77
2021/05/31 09:30:39;;;;;;;2.50;2.40;;;18.60;19.30;;;;;;5059449;28;20522;-78
2021/05/31 09:33:08;;;;;;;4.80;2.40;;;18.40;19.50;;;;;;5061472;28;20503;-79
2021/05/31 09:35:38;;;;;;;2.73;2.10;;;18.60;19.60;;;;;;5066203;28;20427;-79
2021/05/31 09:38:04;;;;;;;2.37;2.17;;;18.40;19.50;;;;;;5067480;28;20478;-77
2021/05/31 09:40:32;;;;;;;2.77;2.57;;;18.70;19.70;;;;;;5066165;28;21100;-77
2021/05/31 09:43:00;;;;;;;3.37;2.13;;;18.70;19.70;;;;;;5060241;28;20459;-78
2021/05/31 09:45:29;;;;;;;4.30;2.40;;;18.50;19.60;;;;;;5062134;28;20464;-78
2021/05/31 09:47:59;;;;;;;2.67;2.30;;;18.60;19.80;;;;;;5059466;28;20430;-78
2021/05/31 09:50:28;;;;;;;5.40;2.70;;;18.80;19.80;;;;;;5064091;28;20495;-78
2021/05/31 09:53:07;;;;;;;2.43;2.20;;;18.80;19.80;;;;;;5071509;28;20472;-78
2021/05/31 09:55:37;;;;;;;2.57;2.37;;;18.80;19.80;;;;;;5074344;28;20586;-76
2021/05/31 09:58:08;;;;;;;2.90;2.37;;;18.70;19.70;;;;;;5069667;28;20481;-77
2021/05/31 10:00:34;;;;;;;2.50;2.30;;;18.90;19.90;;;;;;5067011;28;20412;-76
2021/05/31 10:03:23;;;;;;;2.80;2.50;;;19.20;19.20;;;;;;5063617;28;20447;-77
2021/05/31 10:05:58;;;;;;;2.90;2.53;;;19.10;19.10;;;;;;5062148;28;20461;-78
2021/05/31 10:08:43;;;;;;;4.10;2.50;;;19.00;19.50;;;;;;5059795;28;20525;-77
2021/05/31 10:11:14;;;;;;;2.90;2.70;;;19.30;19.90;;;;;;5057385;28;20592;-77
2021/05/31 10:13:42;;;;;;;3.30;2.47;;;19.10;20.00;;;;;;5055514;28;20472;-78
2021/05/31 10:16:09;;;;;;;3.50;2.43;;;19.10;20.00;;;;;;5054886;28;20495;-78
2021/05/31 10:18:40;;;;;;;5.57;2.50;;;19.00;19.90;;;;;;5054110;28;20506;-77
2021/05/31 10:21:07;;;;;;;3.30;2.73;;;19.10;20.00;;;;;;5053259;28;20495;-77
2021/05/31 10:23:34;;;;;;;2.57;2.37;;;19.00;19.90;;;;;;5053040;28;20481;-78
2021/05/31 10:26:03;;;;;;;3.87;2.57;;;19.10;20.00;;;;;;5053608;28;20419;-78
2021/05/31 10:28:33;;;;;;;3.23;2.73;;;19.30;20.80;;;;;;5054053;28;20449;-77
2021/05/31 10:31:01;;;;;;;3.00;2.70;;;19.50;20.30;;;;;;5054131;28;20439;-77
2021/05/31 10:33:28;;;;;;;4.70;3.00;;;19.30;20.20;;;;;;5063046;28;20970;-78
2021/05/31 10:35:59;;;;;;;4.33;2.23;;;19.30;20.20;;;;;;5066713;28;20453;-78
2021/05/31 10:38:31;;;;;;;2.93;2.33;;;19.40;20.20;;;;;;5066037;28;20475;-77
2021/05/31 10:40:57;;;;;;;3.20;2.40;;;19.60;20.40;;;;;;5065350;28;20453;-79
2021/05/31 10:43:25;;;;;;;4.17;2.67;;;19.70;21.00;;;;;;5055316;28;20496;-78
2021/05/31 10:46:03;;;;;;;3.07;2.87;;;19.30;20.10;;;;;;5055289;28;20460;-78
2021/05/31 10:48:31;;;;;;;3.57;3.03;;;19.10;20.00;;;;;;5062177;28;21087;-78
2021/05/31 10:51:00;;;;;;;3.13;2.87;;;19.20;20.50;;;;;;5058858;28;20564;-78
2021/05/31 10:53:30;;;;;;;3.80;2.77;;;19.00;20.60;;;;;;5058834;28;20574;-77
2021/05/31 10:55:59;;;;;;;2.90;2.70;;;19.20;20.80;;;;;;5066315;28;20994;-78
2021/05/31 10:58:27;;;;;;;5.87;3.00;;;19.20;21.20;;;;;;5065474;28;20463;-78
2021/05/31 11:01:01;;;;;;;11.80;3.10;;;19.50;20.70;;;;;;5056169;28;20452;-79
2021/05/31 11:03:28;;;;;;;2.70;2.50;;;19.70;20.40;;;;;;5055447;28;20481;-78
2021/05/31 11:05:55;;;;;;;2.93;2.63;;;19.60;20.90;;;;;;5054657;28;20956;-79
2021/05/31 11:08:27;;;;;;;3.43;2.73;;;19.70;20.50;;;;;;5054859;28;20504;-78
2021/05/31 11:10:58;;;;;;;3.63;2.30;;;19.80;20.50;;;;;;5060180;28;20431;-79
2021/05/31 11:13:25;;;;;;;3.43;2.67;;;20.00;20.70;;;;;;5063915;28;20467;-79
2021/05/31 11:16:05;;;;;;;2.90;2.70;;;19.70;19.10;;;;;;5062760;28;20528;-79
2021/05/31 11:18:40;;;;;;;6.13;2.50;;;19.90;19.70;;;;;;5058009;28;20493;-78
2021/05/31 11:21:07;;;;;;;5.30;2.77;;;19.70;20.40;;;;;;5062098;28;20452;-79
2021/05/31 11:23:33;;;;;;;2.23;2.13;;;19.60;20.40;;;;;;5060227;28;20497;-79
2021/05/31 11:26:01;;;;;;;3.10;2.90;;;19.90;20.60;;;;;;5067920;28;20455;-78
2021/05/31 11:28:27;;;;;;;2.93;2.70;;;20.10;20.70;;;;;;5067892;28;20491;-79
2021/05/31 11:30:55;;;;;;;2.83;2.63;;;20.20;20.80;;;;;;5071001;28;20758;-77
2021/05/31 11:33:23;;;;;;;2.80;2.60;;;20.10;20.70;;;;;;5067013;28;20486;-79
2021/05/31 11:35:49;;;;;;;3.50;2.70;;;20.00;20.70;;;;;;5062582;28;20492;-78
2021/05/31 11:38:17;;;;;;;2.93;2.73;;;19.90;20.60;;;;;;5059602;28;20982;-80
2021/05/31 11:40:44;;;;;;;5.13;2.67;;;19.90;20.60;;;;;;5061211;28;20449;-78
2021/05/31 11:43:14;;;;;;;3.93;2.80;;;20.30;20.70;;;;;;5059181;28;20503;-79
2021/05/31 11:45:43;;;;;;;2.80;2.60;;;20.50;19.80;;;;;;5060828;28;20521;-78
2021/05/31 11:48:12;;;;;;;2.93;2.70;;;20.10;20.80;;;;;;5059409;28;20451;-79
2021/05/31 11:50:42;;;;;;;3.10;2.80;;;20.00;21.00;;;;;;5075294;28;20456;-79
2021/05/31 11:53:11;;;;;;;4.23;2.73;;;20.50;21.00;;;;;;5074295;28;20591;-78
2021/05/31 11:55:38;;;;;;;3.20;2.90;;;20.50;21.00;;;;;;5061153;28;20454;-80
2021/05/31 11:58:05;;;;;;;2.60;2.40;;;20.40;21.00;;;;;;5061823;28;21059;-79
2021/05/31 12:00:33;;;;;;;2.60;2.37;;;20.70;20.80;;;;;;5061540;28;20910;-80
2021/05/31 12:03:00;;;;;;;3.90;2.93;;;20.90;21.30;;;;;;5059984;28;20460;-79
2021/05/31 12:05:33;;;;;;;2.70;2.50;;;20.40;20.90;;;;;;5058970;28;20485;-78
2021/05/31 12:08:10;;;;;;;3.07;2.77;;;20.20;20.80;;;;;;5063553;28;20400;-78
2021/05/31 12:10:37;;;;;;;2.87;2.67;;;20.70;20.30;;;;;;5073002;28;20449;-79
2021/05/31 12:13:03;;;;;;;3.03;2.73;;;20.70;20.80;;;;;;5071290;28;20479;-79
2021/05/31 12:15:30;;;;;;;3.30;3.00;;;20.80;21.20;;;;;;5072395;28;20830;-79
2021/05/31 12:18:09;;;;;;;3.00;2.80;;;20.60;21.10;;;;;;5067617;28;20521;-79
2021/05/31 12:20:35;;;;;;;2.50;2.40;;;20.60;21.10;;;;;;5059100;28;20448;-80
2021/05/31 12:23:02;;;;;;;4.30;2.70;;;20.60;21.10;;;;;;5060834;28;20528;-78
2021/05/31 12:25:33;;;;;;;3.63;2.57;;;20.50;21.00;;;;;;5064796;28;20428;-80
2021/05/31 12:28:04;;;;;;;2.97;2.70;;;20.60;21.10;;;;;;5058262;28;20456;-78
2021/05/31 12:30:31;;;;;;;4.13;3.10;;;20.70;19.80;;;;;;5061856;28;20481;-78
2021/05/31 12:32:57;;;;;;;2.63;2.43;;;20.70;20.90;;;;;;5061946;28;20469;-79
2021/05/31 12:35:24;;;;;;;2.63;2.43;;;21.00;19.80;;;;;;5058945;28;20481;-80
2021/05/31 12:37:53;;;;;;;2.70;2.50;;;21.20;19.80;;;;;;5060690;28;20467;-79
2021/05/31 12:40:20;;;;;;;2.80;2.60;;;20.90;19.80;;;;;;5061613;28;20420;-77
2021/05/31 12:42:49;;;;;;;3.33;2.10;;;21.10;19.20;;;;;;5060662;28;20481;-79
2021/05/31 12:45:17;;;;;;;2.73;2.53;;;21.10;19.40;;;;;;5060833;28;20477;-78
2021/05/31 12:47:46;;;;;;;2.80;2.43;;;20.80;19.30;;;;;;5058652;28;20428;-79
2021/05/31 12:50:14;;;;;;;2.50;2.30;;;20.80;20.10;;;;;;5060669;28;20420;-80
2021/05/31 12:52:45;;;;;;;5.00;2.30;;;20.90;19.10;;;;;;5060831;28;20447;-80
2021/05/31 12:55:14;;;;;;;5.53;2.57;;;21.10;18.20;;;;;;5061671;28;20485;-79
2021/05/31 12:57:43;;;;;;;4.97;2.60;;;20.90;18.40;;;;;;5061192;28;20479;-79
2021/05/31 13:00:14;;;;;;;2.30;2.10;;;21.10;18.90;;;;;;5062071;28;20478;-79